Grand Strand Airport
KCRE : now visible

Airfield :











YOU CAN JOIN US ON...

 
LOGIN :

Register | Disclaimer

   EN    FR    IT 

 









Legend :    VFR   Marginal VFR   IFR   Intensive IFR   Very Intensive IFR
Visi :
Ceiling :
>= 8 km
>= 3000ft
5 to 8 km
1000 to 3000 ft
1500m to 5 km
500 to 1000 ft
800 to 1500m
200 to 500 ft
< 800m
< 200 ft
Symbols :   Thunderstorms  Fog  Heavy snow  Heavy precipitations  Wind > 20 kt






- Airport Elevation : 32 ft


KCRE - Grand Strand

CURRENT METAR :
  • 212353Z 00000KT 10SM CLR 08/01 A3022 RMK AO1 SLP233 T00830011 10167 20083 53002

EXPIRED METARs :
  • 212253Z 02004KT 10SM CLR 13/M01 A3021 RMK AO1 SLP229 T01331011
  • 212153Z 01006KT 10SM CLR 16/M02 A3022 RMK AO1 SLP233 T01611017
  • 212053Z 36010G16KT 10SM CLR 16/M01 A3021 RMK AO1 SLP231 T01611011 57020
  • 211953Z 31007G16KT 10SM CLR 16/M02 A3023 RMK AO1 SLP238 T01611022

TAF KCRE
Valid from the 22 at 00:00 until the 23 at 00:00 UTC


212320Z 2200/2224 00000KT P6SM SKC
FM221300 16006KT P6SM SCT250
FM221900 19011KT P6SM BKN200
KZJX FIR / North America



MET'MAP, your aeronautical weather chart ! - Copyright ORBIFLY December 2007 - Disclaimer

ORBIFLY MET'MAP TEAM :

Programming & Development : Alexandra Zaïnal
Original concept : Baudouin d'Aumeries
Technical & hardware support : Manuel Goepfert
Assistance : Marc-Olivier Méhu




SOURCES & CREDITS :

   NOAA       Earth
Advisory